Time;durP1;ratioP1;P1;durP2;ratioP2;P2;SDS_P1;SDS_P2;PMS_P1;PMS_P2;Temp;Humidity;BMP_temperature;BMP_pressure;BME280_temperature;BME280_humidity;BME280_pressure;Samples;Min_cycle;Max_cycle;Signal;HPM_P1;HPM_P2
2022/01/19 00:00:59;;;;;;;1.52;1.00;;;;;;;1.10;49.26;99689.75;3403018;29;20039;-72
2022/01/19 00:02:40;;;;;;;2.08;1.48;;;;;;;1.13;49.49;99686.84;3391637;29;20059;-70
2022/01/19 00:04:21;;;;;;;1.65;1.02;;;;;;;1.15;49.50;99682.31;3402657;29;20051;-69
2022/01/19 00:06:02;;;;;;;2.67;1.30;;;;;;;1.16;49.59;99680.50;3403194;29;20138;-70
2022/01/19 00:07:42;;;;;;;6.90;1.45;;;;;;;1.15;49.32;99687.56;3405570;29;20368;-69
2022/01/19 00:09:26;;;;;;;2.15;1.45;;;;;;;1.16;49.15;99691.84;3405576;29;20474;-70
2022/01/19 00:11:06;;;;;;;3.47;1.42;;;;;;;1.13;48.84;99686.84;3405030;29;20043;-70
2022/01/19 00:12:47;;;;;;;1.17;0.98;;;;;;;1.12;48.92;99671.25;3391362;29;20052;-71
2022/01/19 00:14:30;;;;;;;3.45;1.80;;;;;;;1.12;48.72;99677.31;3402089;29;20063;-71
2022/01/19 00:16:10;;;;;;;1.35;1.25;;;;;;;1.11;48.33;99665.19;3383789;29;20541;-72
2022/01/19 00:17:57;;;;;;;3.00;1.30;;;;;;;1.09;48.53;99675.81;3387233;29;20052;-70
2022/01/19 00:19:38;;;;;;;4.10;1.67;;;;;;;1.09;48.70;99674.97;3390363;29;20051;-71
2022/01/19 00:21:19;;;;;;;1.30;1.20;;;;;;;1.08;48.71;99668.06;3391096;29;20060;-71
2022/01/19 00:23:01;;;;;;;3.78;1.20;;;;;;;1.08;48.53;99666.28;3390118;29;20466;-71
2022/01/19 00:24:43;;;;;;;1.58;1.23;;;;;;;1.09;48.46;99669.72;3390316;29;20051;-70
2022/01/19 00:26:23;;;;;;;;;;;;;;;1.18;48.58;99666.28;3390797;29;20082;-70
2022/01/19 00:28:04;;;;;;;1.95;1.10;;;;;;;1.09;48.09;99660.06;3376206;29;20026;-70
2022/01/19 00:29:45;;;;;;;1.58;1.00;;;;;;;1.05;48.02;99660.44;3373816;29;20133;-71
2022/01/19 00:31:26;;;;;;;2.40;1.02;;;;;;;1.01;48.22;99665.16;3387451;29;20040;-70
2022/01/19 00:33:06;;;;;;;1.58;0.98;;;;;;;1.01;48.40;99674.81;3389527;29;20060;-72
2022/01/19 00:34:47;;;;;;;2.92;1.60;;;;;;;0.98;48.26;99668.06;3390172;29;20445;-71
2022/01/19 00:36:29;;;;;;;2.85;1.00;;;;;;;0.97;48.41;99668.16;3377245;29;20040;-72
2022/01/19 00:38:09;;;;;;;2.53;1.35;;;;;;;0.95;48.20;99660.41;3389881;29;20052;-73
2022/01/19 00:39:51;;;;;;;1.30;1.08;;;;;;;0.96;48.14;99661.28;3389880;29;20040;-71
2022/01/19 00:41:31;;;;;;;1.77;1.33;;;;;;;0.97;48.17;99663.75;3390194;29;20051;-70
2022/01/19 00:43:14;;;;;;;1.35;1.25;;;;;;;0.97;48.45;99663.75;3389632;29;20381;-71
2022/01/19 00:44:54;;;;;;;1.55;1.15;;;;;;;0.98;48.13;99662.81;3390142;29;20047;-70
2022/01/19 00:46:35;;;;;;;1.63;0.93;;;;;;;0.98;48.03;99660.19;3389089;29;20044;-70
2022/01/19 00:48:16;;;;;;;1.15;1.05;;;;;;;0.98;48.18;99654.06;3377220;29;20051;-70
2022/01/19 00:49:56;;;;;;;2.20;1.02;;;;;;;0.98;47.99;99670.66;3387302;29;20066;-72
2022/01/19 00:51:37;;;;;;;4.15;1.42;;;;;;;0.96;47.94;99667.34;3390115;29;20640;-72
2022/01/19 00:53:18;;;;;;;1.08;1.08;;;;;;;0.94;48.16;99665.81;3389363;29;20051;-72
2022/01/19 00:54:58;;;;;;;1.75;1.17;;;;;;;0.93;48.02;99667.63;3389914;29;20067;-72
2022/01/19 00:56:39;;;;;;;1.88;1.15;;;;;;;0.93;48.03;99666.75;3391688;29;20092;-72
2022/01/19 00:58:20;;;;;;;3.03;2.08;;;;;;;0.94;47.98;99657.94;3402748;29;20055;-71
2022/01/19 01:00:06;;;;;;;2.72;1.20;;;;;;;0.91;48.39;99652.97;3375877;29;20132;-70
2022/01/19 01:01:47;;;;;;;3.60;1.50;;;;;;;0.95;48.39;99655.16;3398591;29;20047;-71
2022/01/19 01:03:28;;;;;;;2.50;2.30;;;;;;;0.97;48.43;99660.28;3388971;29;20054;-72
2022/01/19 01:05:09;;;;;;;1.38;1.05;;;;;;;0.96;48.65;99656.84;3386285;29;20044;-68
2022/01/19 01:06:50;;;;;;;1.23;1.13;;;;;;;0.97;48.78;99652.44;3393431;29;20040;-70
2022/01/19 01:08:30;;;;;;;3.97;1.40;;;;;;;0.98;49.08;99654.06;3375673;29;20898;-68
2022/01/19 01:10:13;;;;;;;2.58;1.42;;;;;;;0.98;49.36;99648.81;3386847;29;20464;-69
2022/01/19 01:12:20;;;;;;;2.65;1.20;;;;;;;1.00;49.42;99652.16;3389714;29;20480;-71
2022/01/19 01:16:00;;;;;;;3.00;1.45;;;;;;;1.03;49.55;99641.38;3387389;29;20052;-70
2022/01/19 01:19:40;;;;;;;2.42;1.35;;;;;;;1.03;48.88;99651.88;3389841;29;20135;-71
2022/01/19 01:21:21;;;;;;;1.63;1.05;;;;;;;1.02;48.84;99650.22;3375982;29;20064;-70
2022/01/19 01:23:03;;;;;;;3.47;1.75;;;;;;;1.01;48.96;99653.84;3386702;29;20051;-70
2022/01/19 01:24:44;;;;;;;;;;;;;;;1.10;48.74;99658.25;3363474;29;20045;-69
2022/01/19 01:26:25;;;;;;;1.30;1.15;;;;;;;1.03;48.66;99665.00;3365557;29;20414;-69
2022/01/19 01:28:06;;;;;;;2.38;0.95;;;;;;;1.00;48.73;99660.03;3397262;29;20047;-69
2022/01/19 01:29:47;;;;;;;5.50;1.63;;;;;;;0.98;48.53;99654.94;3388229;29;20095;-69
2022/01/19 01:31:28;;;;;;;1.65;1.42;;;;;;;0.98;48.76;99654.06;3385949;29;20296;-70
2022/01/19 01:33:09;;;;;;;1.60;0.85;;;;;;;0.97;48.59;99655.06;3385369;29;20586;-69
2022/01/19 01:34:50;;;;;;;1.20;1.10;;;;;;;0.96;48.42;99650.78;3399753;29;20142;-69
2022/01/19 01:36:31;;;;;;;2.78;1.25;;;;;;;0.98;48.77;99654.06;3380572;29;20036;-69
2022/01/19 01:38:12;;;;;;;2.35;1.30;;;;;;;0.96;48.78;99650.78;3386335;29;20059;-70
2022/01/19 01:39:52;;;;;;;4.90;1.60;;;;;;;0.95;48.48;99649.09;3375167;29;20131;-70
2022/01/19 01:41:33;;;;;;;1.48;1.10;;;;;;;0.97;48.53;99657.69;3372786;29;20063;-70
2022/01/19 01:43:27;;;;;;;1.25;1.10;;;;;;;0.95;48.30;99654.34;3373845;29;20128;-70
2022/01/19 01:45:14;;;;;;;2.30;1.30;;;;;;;0.96;48.59;99656.84;3386619;29;20047;-69
2022/01/19 01:46:59;;;;;;;1.40;1.10;;;;;;;0.98;48.08;99654.06;3398179;29;20095;-69
2022/01/19 01:48:45;;;;;;;2.75;0.98;;;;;;;0.97;48.00;99655.88;3375294;29;20092;-69
2022/01/19 01:54:31;;;;;;;4.53;1.30;;;;;;;0.97;48.18;99662.91;3388085;29;20044;-69
2022/01/19 01:56:16;;;;;;;2.88;1.55;;;;;;;0.97;48.16;99669.00;3396780;29;20043;-69
2022/01/19 01:57:56;;;;;;;2.15;1.35;;;;;;;0.97;48.42;99658.50;3388397;29;20036;-70
2022/01/19 01:59:40;;;;;;;1.73;1.27;;;;;;;0.97;48.53;99660.28;3386362;29;20059;-70
2022/01/19 02:01:48;;;;;;;3.40;1.50;;;;;;;0.97;48.10;99652.44;3366427;29;20062;-68
2022/01/19 02:03:29;;;;;;;3.40;1.23;;;;;;;0.97;48.10;99647.19;3388603;29;20040;-70
2022/01/19 02:05:10;;;;;;;0.93;0.93;;;;;;;0.94;48.25;99653.53;3388370;29;20567;-69
2022/01/19 02:11:04;;;;;;;1.35;1.25;;;;;;;0.91;47.92;99659.03;3385610;29;20144;-68
2022/01/19 02:22:31;;;;;;;2.28;1.02;;;;;;;0.95;48.17;99670.09;3387536;29;20043;-68
2022/01/19 02:24:18;;;;;;;1.35;1.23;;;;;;;0.95;48.42;99665.66;3374728;29;20045;-69
2022/01/19 02:26:03;;;;;;;1.88;1.50;;;;;;;0.94;48.16;99665.81;3387316;29;20155;-69
2022/01/19 02:41:33;;;;;;;1.42;1.33;;;;;;;1.02;48.13;99689.59;3374212;29;20044;-72
2022/01/19 02:43:22;;;;;;;2.15;1.63;;;;;;;1.02;48.13;99686.97;3385983;29;20040;-70
2022/01/19 02:50:43;;;;;;;2.83;1.77;;;;;;;1.06;48.24;99691.81;3401127;29;20067;-69
2022/01/19 02:52:24;;;;;;;1.95;1.67;;;;;;;1.06;48.28;99704.94;3386716;29;20044;-70
2022/01/19 02:54:05;;;;;;;2.28;1.45;;;;;;;1.07;48.18;99700.53;3398917;29;20047;-70
2022/01/19 02:55:46;;;;;;;3.67;1.80;;;;;;;1.06;48.07;99704.94;3383767;29;20049;-70
2022/01/19 02:57:27;;;;;;;3.80;2.22;;;;;;;1.04;47.69;99706.88;3385699;29;20058;-68
2022/01/19 02:59:20;;;;;;;2.47;2.05;;;;;;;1.04;47.96;99700.78;3388512;29;20048;-70
2022/01/19 03:08:41;;;;;;;3.45;1.70;;;;;;;1.03;47.60;99699.97;3374180;29;20417;-69
2022/01/19 03:08:47;;;;;;;2.28;1.63;;;;;;;1.03;47.61;99701.75;3384671;29;20044;-69
2022/01/19 03:10:32;;;;;;;4.45;2.20;;;;;;;1.02;47.60;99700.91;3385839;29;20139;-70
2022/01/19 03:12:13;;;;;;;2.00;1.63;;;;;;;1.02;47.81;99695.66;3384990;29;20436;-70
2022/01/19 03:13:54;;;;;;;2.35;1.70;;;;;;;1.00;48.04;99696.75;3384979;29;20148;-69
2022/01/19 03:15:37;;;;;;;2.25;1.63;;;;;;;0.99;47.86;99693.31;3383615;29;20044;-71
2022/01/19 03:17:18;;;;;;;1.58;1.45;;;;;;;0.99;47.81;99676.75;3371798;29;20526;-71
2022/01/19 03:19:00;;;;;;;2.45;1.63;;;;;;;1.00;47.80;99688.88;3382218;29;20055;-71
2022/01/19 03:20:42;;;;;;;3.03;1.52;;;;;;;1.01;48.03;99691.38;3385181;29;20511;-71
2022/01/19 03:22:28;;;;;;;3.90;1.40;;;;;;;1.02;48.14;99682.53;3397112;29;20048;-71
2022/01/19 03:24:11;;;;;;;2.97;1.75;;;;;;;1.03;47.93;99688.63;3387295;29;20040;-72
2022/01/19 03:25:54;;;;;;;2.67;1.70;;;;;;;1.03;48.09;99692.09;3377423;29;20528;-72
2022/01/19 03:27:35;;;;;;;2.92;1.40;;;;;;;1.03;48.07;99683.38;3372168;29;20072;-69
2022/01/19 03:29:16;;;;;;;1.38;1.23;;;;;;;1.04;47.82;99678.00;3385333;29;20150;-70
2022/01/19 03:30:57;;;;;;;1.80;1.67;;;;;;;1.03;47.85;99678.13;3374497;29;20085;-69
2022/01/19 03:32:38;;;;;;;1.45;1.35;;;;;;;1.03;47.92;99678.13;3372267;29;20048;-70
2022/01/19 03:34:20;;;;;;;5.65;1.80;;;;;;;1.04;47.79;99675.38;3384661;29;20048;-70
2022/01/19 03:36:07;;;;;;;2.75;1.40;;;;;;;1.02;47.65;99677.28;3379373;29;20068;-72
2022/01/19 03:37:48;;;;;;;4.70;2.13;;;;;;;1.06;47.33;99683.13;3371015;29;20044;-71
2022/01/19 03:39:30;;;;;;;3.58;1.70;;;;;;;1.05;47.36;99676.19;3372001;29;20319;-71
2022/01/19 03:41:11;;;;;;;1.85;1.50;;;;;;;1.05;47.37;99676.19;3385075;29;20044;-71
2022/01/19 03:42:52;;;;;;;1.60;1.50;;;;;;;1.05;47.67;99684.06;3373985;29;20040;-71
2022/01/19 03:44:39;;;;;;;2.47;1.80;;;;;;;1.07;47.45;99679.53;3372579;29;20044;-70
2022/01/19 03:46:32;;;;;;;3.72;1.98;;;;;;;1.07;47.43;99676.91;3387678;29;20133;-71
2022/01/19 03:50:12;;;;;;;1.85;1.60;;;;;;;1.07;47.27;99671.66;3373895;29;20144;-71
2022/01/19 03:52:01;;;;;;;3.65;1.88;;;;;;;1.06;47.28;99665.59;3374291;29;20055;-71
2022/01/19 03:53:44;;;;;;;4.83;1.73;;;;;;;1.04;47.17;99670.13;3375389;29;20107;-70
2022/01/19 03:55:25;;;;;;;2.72;1.48;;;;;;;1.04;47.34;99669.31;3374034;29;20300;-73
2022/01/19 03:57:07;;;;;;;1.92;1.45;;;;;;;1.03;47.09;99670.25;3388166;29;20044;-72
2022/01/19 03:58:47;;;;;;;1.90;1.38;;;;;;;1.03;47.19;99680.75;3376676;29;20191;-71
2022/01/19 04:00:31;;;;;;;3.25;1.65;;;;;;;1.02;47.36;99682.53;3373403;29;20040;-71
2022/01/19 04:02:12;;;;;;;3.22;1.38;;;;;;;1.02;47.10;99685.16;3374332;29;20047;-71
2022/01/19 04:04:13;;;;;;;2.15;1.98;;;;;;;1.01;47.23;99680.06;3373834;29;20127;-70
2022/01/19 04:05:59;;;;;;;2.42;1.38;;;;;;;1.01;47.23;99682.69;3376527;29;20504;-71
2022/01/19 04:07:40;;;;;;;3.42;1.80;;;;;;;0.99;47.40;99685.44;3384484;29;20096;-71
2022/01/19 04:09:21;;;;;;;1.30;1.20;;;;;;;0.97;47.11;99683.91;3383994;29;20139;-71
2022/01/19 04:11:02;;;;;;;4.32;1.42;;;;;;;0.95;47.27;99689.28;3400698;29;20052;-71
2022/01/19 04:14:26;;;;;;;2.83;1.65;;;;;;;0.93;47.47;99693.00;3387102;29;20036;-71
2022/01/19 04:16:08;;;;;;;2.72;1.50;;;;;;;0.91;47.33;99687.91;3386655;29;20476;-70
2022/01/19 04:17:53;;;;;;;4.68;1.80;;;;;;;0.92;47.29;99693.97;3386547;29;20082;-70
2022/01/19 04:19:45;;;;;;;1.58;1.45;;;;;;;0.90;47.49;99698.53;3387042;29;20137;-70
2022/01/19 04:21:38;;;;;;;2.30;1.40;;;;;;;0.91;47.21;99694.94;3387486;29;20442;-70
2022/01/19 04:23:20;;;;;;;1.40;1.27;;;;;;;0.89;47.21;99696.88;3386593;29;20084;-69
2022/01/19 04:25:01;;;;;;;4.22;1.67;;;;;;;0.87;47.38;99689.94;3386918;29;20059;-69
2022/01/19 04:26:41;;;;;;;3.00;1.33;;;;;;;0.86;47.28;99693.53;3386150;29;20115;-70
2022/01/19 04:28:25;;;;;;;2.25;1.70;;;;;;;0.85;47.12;99693.66;3386933;29;20070;-70
2022/01/19 04:30:10;;;;;;;1.42;1.33;;;;;;;0.82;47.41;99697.38;3385157;29;20460;-71
2022/01/19 04:31:58;;;;;;;1.60;1.40;;;;;;;0.82;47.22;99700.00;3388155;29;20040;-70
2022/01/19 04:33:43;;;;;;;2.17;1.73;;;;;;;0.80;47.37;99709.81;3386365;29;20587;-70
2022/01/19 04:35:27;;;;;;;2.78;1.35;;;;;;;0.80;47.07;99714.22;3387161;29;20127;-69
2022/01/19 04:45:20;;;;;;;3.60;1.42;;;;;;;0.73;47.37;99726.22;3382705;29;20426;-70
2022/01/19 05:03:06;;;;;;;4.47;1.60;;;;;;;0.69;47.38;99702.03;3396945;29;20564;-70
2022/01/19 05:05:15;;;;;;;1.88;1.77;;;;;;;0.68;47.39;99697.75;3391717;29;20075;-69
2022/01/19 05:07:14;;;;;;;;;;;;;;;0.75;47.33;99704.13;3382532;29;20051;-70
2022/01/19 05:09:00;;;;;;;3.55;1.88;;;;;;;0.68;47.17;99704.78;3375157;29;19989;-72
2022/01/19 05:14:24;;;;;;;3.60;1.80;;;;;;;0.54;47.34;99693.69;3388476;29;20051;-73
2022/01/19 05:16:05;;;;;;;3.42;1.50;;;;;;;0.49;47.46;99689.75;3398016;29;20046;-76
2022/01/19 05:17:46;;;;;;;2.85;1.75;;;;;;;0.46;47.22;99692.66;3375553;29;20408;-69
2022/01/19 05:19:27;;;;;;;2.38;1.67;;;;;;;0.40;47.29;99686.97;3372751;29;20044;-70
2022/01/19 05:21:08;;;;;;;2.50;1.73;;;;;;;0.37;47.45;99684.59;3372943;29;20501;-71
2022/01/19 05:23:12;;;;;;;4.75;1.70;;;;;;;0.34;47.51;99677.00;3362324;29;20120;-69
2022/01/19 05:24:53;;;;;;;4.25;1.67;;;;;;;0.32;47.19;99678.94;3375481;29;20131;-69
2022/01/19 05:26:45;;;;;;;1.80;1.33;;;;;;;0.29;47.24;99670.50;3375873;29;20420;-69
2022/01/19 05:28:31;;;;;;;5.10;1.45;;;;;;;0.28;47.59;99672.25;3386112;29;20466;-72
2022/01/19 05:30:13;;;;;;;2.35;1.40;;;;;;;0.26;47.50;99674.22;3385391;29;20046;-70
2022/01/19 05:31:53;;;;;;;2.80;1.73;;;;;;;0.24;47.04;99673.50;3399362;29;20051;-70
2022/01/19 05:33:34;;;;;;;1.50;1.35;;;;;;;0.22;47.10;99671.00;3374937;29;20139;-71
2022/01/19 05:35:16;;;;;;;4.05;1.70;;;;;;;0.19;47.48;99678.28;3382680;29;20446;-69
2022/01/19 05:37:04;;;;;;;2.65;1.73;;;;;;;0.18;47.36;99668.75;3379742;29;20043;-69
2022/01/19 05:38:54;;;;;;;3.72;1.92;;;;;;;0.14;47.29;99665.56;3389073;29;20063;-71
2022/01/19 05:40:50;;;;;;;2.28;1.52;;;;;;;0.15;47.40;99674.25;3387896;29;20040;-69
2022/01/19 05:42:35;;;;;;;2.38;1.52;;;;;;;0.12;47.34;99667.47;3399441;29;20541;-69
2022/01/19 05:44:15;;;;;;;3.03;1.50;;;;;;;0.11;47.34;99665.00;3401889;29;20051;-69
2022/01/19 05:45:56;;;;;;;4.28;2.00;;;;;;;0.10;47.35;99658.09;3402065;29;20107;-69
2022/01/19 05:47:38;;;;;;;4.90;2.28;;;;;;;0.10;47.25;99663.34;3380151;29;20091;-70
2022/01/19 05:49:18;;;;;;;2.58;1.85;;;;;;;0.12;47.18;99669.28;3398189;29;20071;-71
2022/01/19 05:50:59;;;;;;;4.40;1.77;;;;;;;0.12;47.43;99672.72;3388010;29;20048;-71
2022/01/19 05:52:43;;;;;;;6.25;2.05;;;;;;;0.13;47.50;99673.56;3399014;29;20044;-69
2022/01/19 05:54:24;;;;;;;1.77;1.40;;;;;;;0.14;47.27;99670.00;3401727;29;20047;-75
2022/01/19 05:56:05;;;;;;;5.40;2.13;;;;;;;0.12;47.65;99667.47;3385696;29;20048;-73
2022/01/19 05:57:50;;;;;;;3.53;2.42;;;;;;;0.16;47.69;99668.91;3380509;29;20036;-72
2022/01/19 05:59:31;;;;;;;4.50;2.47;;;;;;;0.16;47.68;99674.16;3385547;29;20040;-72
2022/01/19 06:01:11;;;;;;;2.33;2.10;;;;;;;0.17;47.55;99674.97;3383652;29;20048;-72
2022/01/19 06:02:52;;;;;;;4.10;2.15;;;;;;;0.18;47.70;99674.00;3398203;29;20080;-71
2022/01/19 06:04:59;;;;;;;3.03;1.70;;;;;;;0.19;47.91;99676.50;3364905;29;20059;-72
2022/01/19 06:07:03;;;;;;;3.60;2.58;;;;;;;0.20;47.88;99675.53;3378208;29;20056;-73
2022/01/19 06:09:08;;;;;;;6.00;2.08;;;;;;;0.21;47.99;99676.38;3374899;29;20052;-73
2022/01/19 06:10:54;;;;;;;6.28;1.80;;;;;;;0.22;47.68;99683.28;3373392;29;20044;-72
2022/01/19 06:12:36;;;;;;;6.45;2.30;;;;;;;0.22;48.04;99668.38;3373090;29;20040;-72
2022/01/19 06:14:16;;;;;;;2.90;2.00;;;;;;;0.25;47.99;99674.31;3359394;29;20174;-72
2022/01/19 06:15:57;;;;;;;4.95;3.28;;;;;;;0.25;48.00;99672.53;3375235;29;20036;-71
2022/01/19 06:17:38;;;;;;;3.50;2.28;;;;;;;0.26;48.29;99668.97;3385691;29;20476;-71
2022/01/19 06:19:25;;;;;;;2.60;1.70;;;;;;;0.28;48.02;99664.41;3372893;29;20138;-72
2022/01/19 06:21:06;;;;;;;5.50;1.83;;;;;;;0.32;48.01;99668.44;3396601;29;20073;-73
2022/01/19 06:22:53;;;;;;;2.78;2.30;;;;;;;0.33;47.90;99670.09;3387029;29;20167;-70
2022/01/19 06:24:34;;;;;;;2.55;1.95;;;;;;;0.34;48.11;99666.53;3385535;29;20060;-72
2022/01/19 06:26:14;;;;;;;2.88;2.17;;;;;;;0.36;47.92;99672.47;3397707;29;21184;-71
2022/01/19 06:27:55;;;;;;;2.45;1.92;;;;;;;0.37;47.84;99665.44;3387768;29;20043;-72
2022/01/19 06:29:36;;;;;;;6.57;2.28;;;;;;;0.37;48.05;99666.25;3385218;29;20084;-72
2022/01/19 06:31:16;;;;;;;4.28;2.53;;;;;;;0.39;48.18;99659.09;3397650;29;20040;-71
2022/01/19 06:32:57;;;;;;;3.05;2.15;;;;;;;0.38;48.06;99662.66;3386655;29;20397;-70
2022/01/19 06:34:38;;;;;;;2.97;2.03;;;;;;;0.42;47.85;99669.31;3379622;29;20357;-71
2022/01/19 06:36:37;;;;;;;2.85;1.92;;;;;;;0.46;48.20;99669.88;3388454;29;20075;-72
2022/01/19 06:38:22;;;;;;;7.68;1.98;;;;;;;0.49;48.08;99671.41;3388739;29;20047;-72
2022/01/19 06:40:26;;;;;;;2.42;1.92;;;;;;;0.51;47.88;99669.50;3388406;29;20431;-73
2022/01/19 06:42:06;;;;;;;3.65;2.13;;;;;;;0.51;47.93;99670.31;3374224;29;20104;-72
2022/01/19 06:43:47;;;;;;;3.28;1.95;;;;;;;0.53;47.98;99680.69;3371848;29;20420;-74
2022/01/19 06:45:28;;;;;;;3.90;2.00;;;;;;;0.53;48.20;99678.06;3388742;29;20078;-73
2022/01/19 06:47:09;;;;;;;2.58;2.38;;;;;;;0.53;48.45;99681.53;3387486;29;20096;-73
2022/01/19 06:48:50;;;;;;;14.15;2.58;;;;;;;0.56;48.37;99690.91;3384859;29;20048;-73
2022/01/19 06:50:32;;;;;;;4.13;1.85;;;;;;;0.58;48.42;99689.81;3383426;29;20036;-74
2022/01/19 06:52:13;;;;;;;4.43;1.45;;;;;;;0.62;48.25;99678.13;3382832;29;20087;-74
2022/01/19 06:53:54;;;;;;;2.08;1.85;;;;;;;0.64;48.20;99681.41;3384880;29;20432;-73
2022/01/19 06:55:41;;;;;;;9.50;2.38;;;;;;;0.68;48.41;99675.94;3376225;29;20402;-73
2022/01/19 06:57:22;;;;;;;4.68;1.77;;;;;;;0.70;48.63;99656.50;3371517;29;20124;-75
2022/01/19 06:59:21;;;;;;;5.13;2.08;;;;;;;0.74;48.96;99672.78;3388425;29;20598;-74
2022/01/19 07:01:20;;;;;;;3.38;1.90;;;;;;;0.77;49.05;99672.50;3389280;29;20048;-72
2022/01/19 07:03:20;;;;;;;2.10;1.58;;;;;;;0.79;49.23;99667.97;3388101;29;20460;-74
2022/01/19 07:05:04;;;;;;;2.75;1.80;;;;;;;0.80;49.28;99670.47;3391072;29;20040;-72
2022/01/19 07:06:57;;;;;;;2.47;2.00;;;;;;;0.82;49.06;99668.53;3401051;29;20079;-72
2022/01/19 07:08:52;;;;;;;2.55;1.98;;;;;;;0.85;49.02;99670.91;3375103;29;20041;-73
2022/01/19 07:10:33;;;;;;;2.85;1.92;;;;;;;0.90;49.17;99677.53;3371742;29;20044;-72
2022/01/19 07:12:15;;;;;;;2.65;1.55;;;;;;;0.89;48.98;99658.34;3371080;29;20052;-71
2022/01/19 07:13:57;;;;;;;3.80;2.05;;;;;;;0.91;48.99;99668.72;3385739;29;20048;-73
2022/01/19 07:15:40;;;;;;;4.13;2.17;;;;;;;0.91;48.86;99658.22;3375263;29;20033;-72
2022/01/19 07:17:21;;;;;;;8.23;2.72;;;;;;;0.92;48.69;99659.88;3378485;29;20067;-71
2022/01/19 07:19:02;;;;;;;2.90;1.92;;;;;;;0.93;48.84;99656.28;3381848;29;20040;-72
2022/01/19 07:20:42;;;;;;;14.02;2.03;;;;;;;0.97;49.00;99655.88;3384644;29;20408;-73
2022/01/19 07:22:23;;;;;;;3.97;1.73;;;;;;;1.01;49.29;99654.66;3384477;29;20043;-72
2022/01/19 07:24:12;;;;;;;6.45;2.13;;;;;;;1.08;49.15;99647.06;3375832;29;20547;-72
2022/01/19 07:25:53;;;;;;;6.28;2.45;;;;;;;1.17;49.05;99648.06;3394048;29;20578;-72
2022/01/19 07:27:34;;;;;;;7.03;4.25;;;;;;;1.23;48.85;99643.09;3389042;29;20059;-72
2022/01/19 07:29:15;;;;;;;8.10;4.72;;;;;;;1.30;49.06;99633.69;3386960;29;20054;-73
2022/01/19 07:31:02;;;;;;;7.38;5.05;;;;;;;1.37;48.79;99638.41;3375104;29;20040;-72
2022/01/19 07:32:43;;;;;;;9.82;6.35;;;;;;;1.45;48.60;99644.63;3380609;29;20097;-72
2022/01/19 07:34:25;;;;;;;10.63;6.15;;;;;;;1.52;48.23;99637.03;3374802;29;20079;-73
2022/01/19 07:36:06;;;;;;;10.27;6.32;;;;;;;1.56;48.07;99627.91;3374463;29;20574;-73
2022/01/19 07:37:47;;;;;;;12.90;6.72;;;;;;;1.60;48.07;99639.81;3394451;29;20091;-71
2022/01/19 07:39:28;;;;;;;8.65;6.07;;;;;;;1.66;47.87;99634.00;3389926;29;20055;-72
2022/01/19 07:41:09;;;;;;;12.15;6.53;;;;;;;1.73;47.90;99631.66;3400767;29;20043;-71
2022/01/19 07:42:56;;;;;;;11.50;6.45;;;;;;;1.80;47.75;99635.38;3377062;29;20055;-73
2022/01/19 07:44:59;;;;;;;14.43;7.55;;;;;;;1.91;47.70;99631.75;3403660;29;20476;-73
2022/01/19 07:47:00;;;;;;;12.18;7.45;;;;;;;2.16;47.17;99620.63;3401389;29;20052;-74
2022/01/19 07:48:50;;;;;;;9.30;5.47;;;;;;;2.71;46.58;99619.06;3376421;29;20074;-72
2022/01/19 07:50:52;;;;;;;9.75;6.18;;;;;;;3.37;45.68;99620.63;3377077;29;20032;-74
2022/01/19 07:52:57;;;;;;;7.90;6.43;;;;;;;4.00;45.09;99612.59;3403486;29;20039;-73
2022/01/19 07:54:58;;;;;;;9.60;5.63;;;;;;;4.36;44.75;99608.03;3378787;29;20048;-72
2022/01/19 07:56:59;;;;;;;6.20;4.05;;;;;;;5.22;43.67;99604.41;3333266;29;20142;-72
2022/01/19 07:59:09;;;;;;;7.93;4.13;;;;;;;6.04;42.72;99599.19;3362803;29;20109;-72
2022/01/19 08:01:04;;;;;;;5.85;5.00;;;;;;;6.61;42.15;99600.00;3382859;29;20512;-71
2022/01/19 08:03:19;;;;;;;6.00;3.55;;;;;;;7.03;41.68;99599.69;3346017;29;20522;-73
2022/01/19 08:05:22;;;;;;;5.13;3.42;;;;;;;7.24;41.69;99603.53;3402737;29;20134;-73
2022/01/19 08:07:06;;;;;;;6.97;3.42;;;;;;;7.29;41.34;99599.34;3376382;29;20101;-72
2022/01/19 08:08:47;;;;;;;7.97;3.28;;;;;;;7.28;41.20;99591.56;3383110;29;20040;-71
2022/01/19 08:10:29;;;;;;;3.88;2.50;;;;;;;7.19;40.95;99593.47;3399744;29;20115;-73
2022/01/19 08:12:11;;;;;;;5.38;2.65;;;;;;;7.04;40.89;99584.59;3389364;29;20137;-70
2022/01/19 08:13:56;;;;;;;3.20;2.63;;;;;;;6.91;40.77;99585.16;3385456;29;20040;-72
2022/01/19 08:15:37;;;;;;;3.50;2.53;;;;;;;6.80;40.64;99583.72;3386963;29;20504;-72
2022/01/19 08:17:20;;;;;;;4.68;2.28;;;;;;;6.75;40.45;99583.41;3378156;29;20052;-73
2022/01/19 08:19:02;;;;;;;3.47;2.17;;;;;;;6.75;40.33;99568.34;3400499;29;20115;-71
2022/01/19 08:20:43;;;;;;;4.15;2.20;;;;;;;6.84;40.03;99579.75;3383028;29;20041;-71
2022/01/19 08:22:26;;;;;;;3.03;2.33;;;;;;;7.08;39.35;99581.44;3374180;29;20101;-72
2022/01/19 08:24:39;;;;;;;2.72;2.20;;;;;;;7.42;38.65;99581.03;3360095;29;20051;-71
2022/01/19 08:26:19;;;;;;;4.22;2.08;;;;;;;7.62;38.30;99583.22;3389987;29;20507;-73
2022/01/19 08:28:00;;;;;;;4.30;2.70;;;;;;;7.81;38.01;99593.34;3378718;29;20456;-73
2022/01/19 08:29:46;;;;;;;4.95;2.33;;;;;;;7.99;37.79;99582.41;3384417;29;20080;-73
2022/01/19 08:31:35;;;;;;;8.85;2.63;;;;;;;8.23;37.55;99585.81;3377595;29;20044;-74
2022/01/19 08:33:25;;;;;;;5.60;2.47;;;;;;;8.52;37.08;99590.34;3380177;29;20083;-73
2022/01/19 08:35:10;;;;;;;5.45;2.28;;;;;;;8.69;36.79;99583.81;3388468;29;20089;-73
2022/01/19 08:37:14;;;;;;;4.25;2.63;;;;;;;8.81;36.54;99588.69;3401780;29;20099;-74
2022/01/19 08:39:01;;;;;;;6.60;2.63;;;;;;;8.90;36.31;99585.72;3387179;29;20047;-73
2022/01/19 08:40:46;;;;;;;4.68;2.38;;;;;;;8.85;36.38;99579.31;3381202;29;20128;-73
2022/01/19 08:42:33;;;;;;;4.47;2.67;;;;;;;8.74;36.38;99572.66;3386567;29;20611;-74
2022/01/19 08:44:14;;;;;;;4.75;2.55;;;;;;;8.54;36.20;99575.03;3380264;29;20119;-73
2022/01/19 08:45:59;;;;;;;5.10;2.10;;;;;;;8.33;36.51;99569.63;3376918;29;20596;-74
2022/01/19 08:47:50;;;;;;;3.25;2.75;;;;;;;8.14;36.60;99571.81;3389424;29;20040;-74
2022/01/19 08:49:39;;;;;;;5.10;2.75;;;;;;;7.91;36.72;99577.16;3387983;29;20518;-73
2022/01/19 08:51:43;;;;;;;5.03;2.03;;;;;;;7.64;36.96;99573.25;3366845;29;20059;-74
2022/01/19 08:53:32;;;;;;;5.10;2.53;;;;;;;7.37;36.86;99558.72;3385092;29;20049;-73
2022/01/19 08:55:30;;;;;;;5.45;2.83;;;;;;;7.12;37.31;99558.03;3375461;29;20132;-73
2022/01/19 08:57:11;;;;;;;4.90;2.67;;;;;;;6.90;37.25;99555.19;3386869;29;20048;-74
2022/01/19 08:58:52;;;;;;;6.22;2.83;;;;;;;6.70;37.44;99548.69;3389755;29;20046;-74
2022/01/19 09:00:33;;;;;;;4.97;2.72;;;;;;;6.52;37.61;99535.69;3389725;29;20618;-74
2022/01/19 09:02:14;;;;;;;5.45;3.67;;;;;;;6.36;38.01;99541.06;3390528;29;20120;-73
2022/01/19 09:03:55;;;;;;;5.43;3.17;;;;;;;6.20;37.86;99534.81;3390335;29;20040;-72
2022/01/19 09:05:35;;;;;;;5.03;2.90;;;;;;;6.06;38.11;99536.31;3389868;29;20047;-74
2022/01/19 09:07:17;;;;;;;6.30;3.25;;;;;;;5.93;38.43;99533.34;3392247;29;20554;-75
2022/01/19 09:08:58;;;;;;;5.13;3.20;;;;;;;5.82;38.51;99529.25;3376625;29;20159;-71
2022/01/19 09:10:40;;;;;;;4.95;2.58;;;;;;;5.76;38.54;99531.75;3392284;29;20525;-73
2022/01/19 09:12:21;;;;;;;4.82;3.17;;;;;;;5.71;38.57;99528.78;3389678;29;20058;-73
2022/01/19 09:14:03;;;;;;;6.53;3.40;;;;;;;5.65;38.61;99531.09;3382506;29;20481;-73
2022/01/19 09:15:44;;;;;;;4.82;2.95;;;;;;;5.63;38.65;99532.25;3398098;29;20452;-76
2022/01/19 09:17:25;;;;;;;6.90;3.25;;;;;;;5.60;38.59;99529.91;3393979;29;20051;-73
2022/01/19 09:19:07;;;;;;;4.30;3.70;;;;;;;5.59;38.57;99534.38;3398311;29;20426;-73
2022/01/19 09:20:48;;;;;;;;;;;;;;;5.76;38.89;99527.28;3402354;29;20142;-74
2022/01/19 09:22:28;;;;;;;5.82;3.05;;;;;;;5.66;38.42;99530.09;3395064;29;20391;-73
2022/01/19 09:24:10;;;;;;;4.70;2.65;;;;;;;5.64;38.42;99533.91;3375595;29;20076;-74
2022/01/19 09:25:51;;;;;;;5.32;3.25;;;;;;;5.71;38.41;99539.34;3386784;29;20043;-74
2022/01/19 09:27:33;;;;;;;8.25;3.85;;;;;;;5.77;38.28;99531.56;3397241;29;20384;-73
2022/01/19 09:29:13;;;;;;;;;;;;;;;6.02;38.44;99535.03;3392365;29;20047;-71
2022/01/19 09:30:57;;;;;;;3.33;2.72;;;;;;;6.01;38.20;99530.72;3389305;29;20302;-73
2022/01/19 09:32:39;;;;;;;6.43;3.30;;;;;;;6.05;38.20;99513.53;3394066;29;20040;-71
2022/01/19 09:34:21;;;;;;;6.80;3.78;;;;;;;6.09;38.07;99522.78;3395336;29;20855;-73
2022/01/19 09:37:43;;;;;;;6.47;3.55;;;;;;;6.11;38.12;99515.47;3387923;29;20040;-75
2022/01/19 09:39:26;;;;;;;7.25;3.78;;;;;;;6.15;38.13;99515.97;3388680;29;20208;-76
2022/01/19 09:41:07;;;;;;;7.60;4.30;;;;;;;6.18;38.17;99509.53;3389068;29;20032;-72